Tiempo atmosférico en la estación meteorológica de Cuenca, Cuenca (945 m.)

Fecha
DESCASC
Temp. máxima en grados centígrados (hora)
DESCASC
Temp. mínima en grados centígrados (hora)
DESCASC
Temp. media en grados centígrados
DESCASC
Racha de viento máxima en m/sg (hora)
DESCASC
Velocidad máxima media en intervalos de 10 minutos(hora)
DESCASC
Precipitaciones diarias en mm
DESCASC
Precipitaciones de 00:00 a 06:00 en mm
DESCASC
Precipitaciones de 06:00 a 12:00 en mm
DESCASC
Precipitaciones de 12:00 a 18:00 en mm
DESCASC
Precipitaciones de 18:00 a 24:00 en mm
DESCASC
21-08-2017 34.5 (16:50) 19.1 (08:00) 26.8 7.5 (22:50) 3.89 (10:30) 0 0 0 0 0
20-08-2017 34.5 (17:30) 18.8 (08:00) 26.6 7.5 (22:30) 3.61 (22:10) 0 0 0 0 0
19-08-2017 34 (17:30) 20.3 (07:40) 27.1 8.33 (22:30) 3.89 (11:40) 0 0 0 0 0
18-08-2017 36.4 (17:10) 20.7 (07:50) 28.6 7.78 (16:40) 3.61 (15:20) 0 0 0 0 0
17-08-2017 36.2 (16:30) 19.6 (00:00) 27.9 6.94 (23:50) 3.33 (23:40) 0 0 0 0 0
16-08-2017 35.1 (17:30) 18.8 (00:00) 26.9 7.22 (16:10) 3.61 (16:10) 0 0 0 0 0
15-08-2017 34.6 (16:20) 20.5 (00:00) 27.5 8.61 (17:00) 4.17 (02:00) 0 0 0 0 0
14-08-2017 33.8 (17:10) 16.4 (07:50) 25.1 9.17 (19:20) 5 (19:50) 0 0 0 0 0
13-08-2017 32 (16:00) 15.9 (00:00) 23.9 8.61 (22:30) 4.17 (22:40) 0 0 0 0 0
12-08-2017 31.7 (17:50) 13.1 (00:00) 22.4 7.5 (23:40) 3.33 (22:50) 0 0 0 0 0
11-08-2017 29.2 (17:30) 11 (00:00) 20.1 7.5 (17:40) 3.61 (17:30) 0 0 0 0 0
10-08-2017 27 (17:40) 10.4 (00:00) 18.7 8.33 (00:20) 3.61 (00:10) 0 0 0 0 0
09-08-2017 29.8 (16:50) 14.9 (00:00) 22.3 10.56 (21:20) 5.56 (23:20) 0 0 0 0 0
08-08-2017 30.3 (17:50) 16.5 (00:00) 23.4 7.78 (17:00) 3.33 (12:10) 0 0 0 0 0
07-08-2017 35.9 (17:20) 19.5 (00:00) 27.7 13.89 (19:00) 5.83 (18:50) 0 0 0 0 0
06-08-2017 34.8 (17:20) 20.9 (00:00) 27.8 11.67 (19:40) 5.83 (19:40) 0 0 0 0 0
05-08-2017 38 (16:10) 21 (00:00) 29.5 10.28 (22:00) 5.28 (23:10) 0 0 0 0 0
04-08-2017 37.9 (17:30) 17.4 (00:00) 27.7 6.11 (06:00) 2.78 (15:30) 0 0 0 0 0
03-08-2017 36.3 (17:20) 17.8 (00:00) 27 7.5 (18:40) 3.61 (19:20) 0 0 0 0 0
02-08-2017 31.6 (17:20) 21 (00:00) 26.3 11.94 (19:00) 5.28 (15:30) 3.8 0 1.8 1 1
01-08-2017 33 (17:30) 19 (00:00) 26 9.72 (18:30) 4.44 (23:50) 0 0 0 0 0
31-07-2017 34.8 (17:50) 20.7 (00:00) 27.8 10.83 (16:30) 5.56 (17:00) 0 0 0 0 0
30-07-2017 36.2 (17:40) 18.7 (00:00) 27.5 10.28 (18:00) 4.72 (16:50) 0 0 0 0 0
29-07-2017 36.3 (16:00) 18.3 (00:00) 27.3 8.89 (15:50) 4.17 (16:10) 0 0 0 0 0
28-07-2017 36.6 (17:30) 18.8 (00:00) 27.7 8.06 (14:40) 4.17 (14:40) 0 0 0 0 0
27-07-2017 35.9 (17:40) 17.8 (00:00) 26.9 8.89 (16:50) 3.89 (14:40) 0 0 0 0 0
26-07-2017 32.8 (17:00) 13.9 (00:00) 23.3 8.06 (15:30) 3.61 (15:30) 0 0 0 0 0
25-07-2017 31 (18:10) 14 (00:00) 22.5 8.61 (19:00) 4.17 (19:30) 0 0 0 0 0
24-07-2017 31.5 (17:20) 16.6 (00:00) 24.1 9.44 (15:10) 4.72 (16:00) 0 0 0 0 0
23-07-2017 33.1 (17:40) 17.1 (00:00) 25.1 8.33 (20:10) 4.44 (18:20) 0 0 0 0 0

Gráficas

Temp. máximas Temp. mínimas Temp. medias Precipitaciones Rachas de viento máximas Velocidades máximas media en intervalos de 10 minutos

Datos horarios

Fecha y hora oficial Temperatura (ºC) Velocidad del viento (km/h) Dirección del viento Racha (km/h) Dirección de racha Precipitación (mm) Presión (hPa) Tendencia (hPa) Humedad (%)
2017-08-21 23:00:00 26.2 14 Sudeste 27 Sudeste 0 912.9 1.9 53
2017-08-21 22:00:00 28.3 6 Sudeste 13 Sur 0 912.1 1 36
2017-08-21 21:00:00 30.2 6 Sur 19 Sur 0 911.5 0.3 32
2017-08-21 20:00:00 32 9 Sur 17 Sur 0 911 -0.5 28
2017-08-21 19:00:00 33.5 9 Sur 19 Sudoeste 0 911.1 -0.9 27
2017-08-21 18:00:00 34 5 Sur 23 Sudeste 0 911.2 -1.6 26
2017-08-21 17:00:00 34.5 9 Oeste 21 Oeste 0 911.5 -1.8 22
2017-08-21 16:00:00 33.6 5 Sur 18 Sudeste 0 912 -1.8 25
2017-08-21 15:00:00 32 5 Nordeste 19 Sudeste 0 912.8 -1.5 26
2017-08-21 14:00:00 31.1 9 Sur 23 Sudeste 0 913.3 -1.3 36
2017-08-21 13:00:00 29 11 Sur 26 Sudeste 0 913.8 -0.9 44
2017-08-21 12:00:00 27 14 Sudeste 26 Sur 0 914.3 -0.4 51
2017-08-21 11:00:00 24.9 13 Sudeste 23 Sur 0 914.6 0.1 59
2017-08-21 10:00:00 23.2 13 Sudeste 25 Sudeste 0 914.7 0.4 64
2017-08-21 09:00:00 20.6 3 Sudeste 6 Sudeste 0 914.7 0.4 77
2017-08-21 08:00:00 19.2 2 Sudeste 6 Sudeste 0 914.5 0.1 82
2017-08-21 07:00:00 19.4 2 Sudeste 7 Sur 0 914.3 -0.2 81
2017-08-21 06:00:00 20 2 Sudeste 9 Sudeste 0 914.3 -0.5 80
2017-08-21 05:00:00 20.6 6 Sudeste 15 Sur 0 914.4 -0.4 78
2017-08-21 04:00:00 20.9 5 Sur 13 Sur 0 914.5 -0.1 77
2017-08-21 03:00:00 21.8 7 Sudeste 18 Sudeste 0 914.8 0.4 73
2017-08-21 02:00:00 22.6 5 Sur 14 Sur 0 914.8 0.7 70
2017-08-21 01:00:00 23.6 6 Sudeste 22 Sudeste 0 914.6 1.3 66
2017-08-21 00:00:00 24.8 8 Sudeste 21 Sudeste 0 914.4 2 63
2017-08-20 23:00:00 26.4 10 Sudeste 27 Sudeste 0 914.1 2.1 57
2017-08-20 22:00:00 29.2 9 Nordeste 22 Este 0 913.3 1.1 39
2017-08-20 21:00:00 31.1 3 Noroeste 18 Noroeste 0 912.4 -0.3 24
2017-08-20 20:00:00 32.4 7 Oeste 19 Noroeste 0 912 -1.1 28
2017-08-20 19:00:00 33.8 6 Oeste 17 Oeste 0 912.2 -1.3 26
2017-08-20 18:00:00 34.2 4 Noroeste 18 Noroeste 0 912.7 -1.4 27
2017-08-20 17:00:00 33.8 7 Sudoeste 14 Sur 0 913.1 -1.5 27
2017-08-20 16:00:00 32.9 5 Oeste 17 Sudeste 0 913.5 -1.4 28
2017-08-20 15:00:00 32.6 4 Sudoeste 16 Sudoeste 0 914.1 -1.1 32
2017-08-20 14:00:00 31 5 Sur 21 Sudeste 0 914.6 -0.8 35
2017-08-20 13:00:00 29.2 8 Sur 20 Sur 0 914.9 -0.4 41
2017-08-20 12:00:00 27.2 11 Sur 19 Sur 0 915.2 0 46
2017-08-20 11:00:00 25 12 Sur 24 Sudeste 0 915.4 0.7 55
2017-08-20 10:00:00 23.2 6 Sur 14 Sur 0 915.3 1.2 63
2017-08-20 09:00:00 20.3 2 Sur 6 Sur 0 915.2 1.3 76
2017-08-20 08:00:00 18.8 3 Oeste 6 Sudoeste 0 914.7 1 84
2017-08-20 07:00:00 19.5 2 Sur 7 Noroeste 0 914.1 0.2 81
2017-08-20 06:00:00 20.1 2 Noroeste 6 Norte 0 913.9 0 78
2017-08-20 05:00:00 20.5 3 Sudoeste 8 Oeste 0 913.7 -0.5 79
2017-08-20 04:00:00 21 3 Noroeste 6 Noroeste 0 913.9 -0.3 77
2017-08-20 03:00:00 21 5 Sudeste 9 Sur 0 913.9 0 77
2017-08-20 02:00:00 21.6 6 Sur 12 Sur 0 914.2 0.8 74
2017-08-20 01:00:00 22.6 6 Sudeste 18 Sur 0 914.2 1.6 70
2017-08-20 00:00:00 23.9 9 Sur 25 Sudeste 0 913.9 2.2 65
2017-08-19 23:00:00 25 12 Sudeste 30 Sudeste 0 913.4 2.1 60
2017-08-19 22:00:00 26.8 14 Sur 27 Sur 0 912.6 1.3 52
2017-08-19 21:00:00 29.7 12 Sudeste 26 Sur 0 911.7 0.3 41
2017-08-19 20:00:00 31.7 5 Sudoeste 23 Oeste 0 911.3 -0.2 29
2017-08-19 19:00:00 33 9 Sudoeste 22 Sudoeste 0 911.3 -0.6 24
2017-08-19 18:00:00 33.8 8 Oeste 26 Oeste 0 911.4 -0.8 21
2017-08-19 17:00:00 33.4 9 Sur 21 Sudoeste 0 911.5 -0.9 25
2017-08-19 16:00:00 33.5 8 Sudoeste 23 Sur 0 911.9 -0.9 25
2017-08-19 15:00:00 32.5 9 Sur 23 Este 0 912.2 -0.9 28
2017-08-19 14:00:00 30.8 12 Sur 23 Sudeste 0 912.4 -0.4 31
2017-08-19 13:00:00 29.7 12 Sur 26 Sudeste 0 912.8 0.1 32
2017-08-19 12:00:00 28 13 Sur 25 Sur 0 913.1 0.5 37
2017-08-19 11:00:00 27 11 Sudeste 22 Sudeste 0 912.8 0.8 39
2017-08-19 10:00:00 23.6 4 Oeste 6 Oeste 0 912.7 1.4 50
2017-08-19 09:00:00 21.1 3 Noroeste 6 Noroeste 0 912.6 1.6 56
2017-08-19 08:00:00 20.3 3 Norte 5 Oeste 0 912 0.7 58
2017-08-19 07:00:00 20.8 2 Norte 5 Norte 0 911.3 0.1 54
2017-08-19 06:00:00 21.2 0 Calma 7 Norte 0 911 0 51
2017-08-19 05:00:00 22.2 3 Norte 9 Noroeste 0 911.3 0.3 55
2017-08-19 04:00:00 22.9 2 Noroeste 5 Norte 0 911.2 0.1 43
2017-08-19 03:00:00 23.7 0 Calma 6 Oeste 0 911 0.2 44
2017-08-19 02:00:00 24.4 3 Noroeste 13 Sur 0 911 0.1 44
2017-08-19 01:00:00 24.8 4 Nordeste 8 Nordeste 0 911.1 0.6 31
2017-08-19 00:00:00 25.8 2 Oeste 4 Nordeste 0 910.8 0.5 26
2017-08-18 23:00:00 27.9 0 Calma 8 Norte 0 910.9 0.8 22
2017-08-18 22:00:00 29.9 0 Calma 7 Norte 0 910.5 0.6 19
2017-08-18 21:00:00 32 4 Noroeste 18 Noroeste 0 910.3 0.3 16
2017-08-18 20:00:00 33.5 10 Oeste 22 Oeste 0 910.1 -0.1 15
2017-08-18 19:00:00 35.2 10 Oeste 24 Oeste 0 909.9 -0.7 14
2017-08-18 18:00:00 36.1 10 Oeste 28 Oeste 0 910 -1 14
2017-08-18 17:00:00 36.2 12 Oeste 28 Noroeste 0 910.2 -1.4 14
2017-08-18 16:00:00 35.8 9 Noroeste 27 Sudoeste 0 910.6 -1.4 16
2017-08-18 15:00:00 35 11 Noroeste 24 Oeste 0 911 -1.6 17
2017-08-18 14:00:00 33.8 9 Oeste 20 Sudoeste 0 911.6 -1.3 21
2017-08-18 13:00:00 32.6 4 Sudeste 14 Sudoeste 0 912 -0.8 28
2017-08-18 12:00:00 30 7 Sur 16 Sudeste 0 912.6 -0.1 34
2017-08-18 11:00:00 27.7 7 Sudeste 19 Sur 0 912.9 0.6 40
2017-08-18 10:00:00 25.6 9 Sur 19 Sudeste 0 912.8 0.5 46
2017-08-18 09:00:00 22.6 2 Oeste 5 Oeste 0 912.7 0.6 59
2017-08-18 08:00:00 20.7 2 Sudoeste 5 Oeste 0 912.3 -0.2 67
2017-08-18 07:00:00 21.2 3 Sudoeste 6 Oeste 0 912.3 -0.4 66
2017-08-18 06:00:00 21.7 0 Calma 5 Noroeste 0 912.1 -0.8 66
2017-08-18 05:00:00 22.1 0 Calma 6 Sudeste 0 912.5 -0.7 65
2017-08-18 04:00:00 23.3 3 Sudoeste 19 Sur 0 912.7 -0.6 61
2017-08-18 03:00:00 23.7 9 Sudeste 17 Sudeste 0 912.9 -0.3 59
2017-08-18 02:00:00 24.4 6 Sudeste 23 Sudeste 0 913.2 0.2 58
2017-08-18 01:00:00 25.3 9 Sudeste 26 Sudeste 0 913.3 1 56
2017-08-18 00:00:00 26.5 11 Sudeste 25 Sudoeste 0 913.2 1.2 52
2017-08-17 23:00:00 27.7 12 Sudeste 21 Sudeste 0 913 1.2 42
2017-08-17 22:00:00 29.4 5 Sudeste 10 Sudeste 0 912.3 0.6 21
2017-08-17 21:00:00 31.6 5 Sur 15 Sudoeste 0 912 0 21
2017-08-17 20:00:00 33.2 8 Sudoeste 21 Sudoeste 0 911.8 -0.5 19
2017-08-17 19:00:00 34.9 8 Sudoeste 21 Sudoeste 0 911.7 -0.9 17
2017-08-17 18:00:00 35.4 8 Sur 24 Sudoeste 0 912 -1.1 18
2017-08-17 17:00:00 35.7 9 Oeste 23 Sudoeste 0 912.3 -1.2 16
2017-08-17 16:00:00 35.6 4 Oeste 18 Sudoeste 0 912.6 -1.6 15
2017-08-17 15:00:00 34.5 10 Oeste 21 Noroeste 0 913.1 -1.4 16
2017-08-17 14:00:00 33.6 5 Sur 16 Sudoeste 0 913.5 -1 20
2017-08-17 13:00:00 31.8 6 Sur 18 Sur 0 914.2 -0.1 28
2017-08-17 12:00:00 29.7 10 Sur 21 Sur 0 914.5 0.3 36
2017-08-17 11:00:00 27.8 8 Sur 15 Sudeste 0 914.5 0.5 43
2017-08-17 10:00:00 24.6 3 Sudoeste 6 Sur 0 914.3 0.7 53
2017-08-17 09:00:00 21.7 2 Sur 5 Sudeste 0 914.2 0.7 61
2017-08-17 08:00:00 19.6 0 Calma 5 Noroeste 0 914 0.6 70
2017-08-17 07:00:00 19.9 0 Calma 3 Oeste 0 913.6 0.1 66
2017-08-17 06:00:00 20.7 0 Calma 3 Sudoeste 0 913.5 -0.3 66
2017-08-17 05:00:00 21.6 0 Calma 7 Oeste 0 913.4 -0.5 65
2017-08-17 04:00:00 22.2 2 Noroeste 8 Noroeste 0 913.5 -0.2 65
2017-08-17 03:00:00 22.8 3 Oeste 9 Noroeste 0 913.8 0.4 58
2017-08-17 02:00:00 23.7 3 Sur 15 Este 0 913.9 0.6 61
2017-08-17 01:00:00 23.6 9 Sur 17 Sur 0 913.7 0.7 47
2017-08-17 00:00:00 24.5 2 Oeste 5 Oeste 0 913.4 0.9 22
2017-08-16 23:00:00 26.4 4 Nordeste 15 Nordeste 0 913.3 1 19
2017-08-16 22:00:00 28.7 6 Nordeste 13 Nordeste 0 913 0.9 16
2017-08-16 21:00:00 31 4 Noroeste 14 Oeste 0 912.5 0.3 14
2017-08-16 20:00:00 32.7 6 Oeste 19 Noroeste 0 912.3 0 13
2017-08-16 19:00:00 34.2 6 Oeste 24 Norte 0 912.1 -0.6 12
2017-08-16 18:00:00 34.7 9 Noroeste 21 Oeste 0 912.2 -1 12
2017-08-16 17:00:00 34.8 7 Sudoeste 26 Oeste 0 912.3 -1.2 12
2017-08-16 16:00:00 34.4 8 Sudoeste 24 Oeste 0 912.7 -1.2 15
2017-08-16 15:00:00 33.3 8 Oeste 26 Sudoeste 0 913.2 -1.1 17
2017-08-16 14:00:00 32.8 10 Sudoeste 23 Oeste 0 913.5 -0.8 20
2017-08-16 13:00:00 30.9 4 Oeste 9 Oeste 0 913.9 -0.3 28
2017-08-16 12:00:00 27.9 3 Sudoeste 8 Sudoeste 0 914.3 0 45
2017-08-16 11:00:00 24.9 3 Sudoeste 7 Sudoeste 0 914.3 0.5 57
2017-08-16 10:00:00 22.7 3 Sur 5 Sudoeste 0 914.2 0.8 62
2017-08-16 09:00:00 20.6 0 Calma 5 Norte 0 914.3 1 69
2017-08-16 08:00:00 18.8 3 Oeste 5 Oeste 0 913.8 0.5 73
2017-08-16 07:00:00 19.2 0 Calma 4 Oeste 0 913.4 -0.1 72
2017-08-16 06:00:00 19.9 2 Sur 6 Noroeste 0 913.3 -0.2 70
2017-08-16 05:00:00 20.4 3 Oeste 6 Oeste 0 913.3 -0.5 68
2017-08-16 04:00:00 21.1 0 Calma 5 Sudoeste 0 913.5 -0.2 66
2017-08-16 03:00:00 22 0 Calma 10 Sudeste 0 913.5 0 63
2017-08-16 02:00:00 23 5 Sur 13 Sudeste 0 913.8 0.7 61
2017-08-16 01:00:00 24.4 7 Sudeste 14 Sudeste 0 913.7 1.2 56
2017-08-16 00:00:00 25.8 6 Sudeste 22 Sudeste 0 913.5 1.9 49
2017-08-15 23:00:00 27 7 Sudeste 17 Sudeste 0 913.1 2 28
2017-08-15 22:00:00 28.8 3 Norte 8 Norte 0 912.5 1.6 26
2017-08-15 21:00:00 30.3 3 Norte 14 Noroeste 0 911.6 0.5 25
2017-08-15 20:00:00 31.5 6 Noroeste 21 Noroeste 0 911.1 0 22
2017-08-15 19:00:00 33 7 Sudoeste 22 Oeste 0 910.9 -0.5 21
2017-08-15 18:00:00 33.2 12 Oeste 27 Sudoeste 0 911.1 -0.8 22
2017-08-15 17:00:00 33.7 12 Oeste 31 Oeste 0 911.1 -1.3 23
2017-08-15 16:00:00 34.2 12 Oeste 25 Sudoeste 0 911.4 -1.5 23
2017-08-15 15:00:00 33.4 13 Oeste 28 Oeste 0 911.9 -1.1 24
2017-08-15 14:00:00 32.5 11 Sudoeste 23 Sur 0 912.4 -0.5 28
2017-08-15 13:00:00 31.5 10 Sudoeste 21 Sudoeste 0 912.9 -0.1 30
2017-08-15 12:00:00 29.7 6 Sur 14 Sudoeste 0 913 -0.1 33
2017-08-15 11:00:00 27.1 7 Sudeste 15 Sur 0 912.9 0.3 36
2017-08-15 10:00:00 24.6 10 Sudeste 19 Sur 0 913 0.6 39
2017-08-15 09:00:00 22.3 8 Sur 19 Sur 0 913.1 1.2 42
2017-08-15 08:00:00 21 8 Sur 20 Sur 0 912.6 0.7 41
2017-08-15 07:00:00 21.2 10 Sur 27 Sudeste 0 912.4 0.4 37
2017-08-15 06:00:00 21.4 13 Sudeste 29 Sudeste 0 911.9 -0.1 31
2017-08-15 05:00:00 20.8 10 Sur 26 Sudeste 0 911.9 -0.5 37
2017-08-15 04:00:00 20.6 8 Sur 17 Sudeste 0 912 -0.5 39
2017-08-15 03:00:00 21.2 12 Sur 30 Sur 0 912 -0.3 42
2017-08-15 02:00:00 21.9 15 Sudeste 29 Sudeste 0 912.4 0.5 41
2017-08-15 01:00:00 22.5 14 Sur 26 Sudeste 0 912.5 1.1 40
2017-08-15 00:00:00 23.3 12 Sudeste 25 Sudeste 0 912.3 1.7 36
2017-08-14 23:00:00 24.3 9 Sudeste 27 Sudeste 0 911.9 1.8 42
2017-08-14 22:00:00 25.8 12 Sudeste 29 Sudeste 0 911.4 1.5 42
2017-08-14 21:00:00 27.7 14 Sudeste 30 Sudeste 0 910.6 0.6 34
2017-08-14 20:00:00 29.7 14 Sudeste 33 Sudeste 0 910.1 0 28
2017-08-14 19:00:00 31.6 15 Sur 32 Sur 0 909.9 -0.5 24
2017-08-14 18:00:00 32.9 15 Sur 31 Sur 0 910 -1 21
2017-08-14 17:00:00 33.4 11 Sur 31 Sur 0 910.1 -1.4 18
2017-08-14 16:00:00 33.3 13 Sudeste 26 Sur 0 910.4 -1.5 20
2017-08-14 15:00:00 32.6 11 Sur 25 Sudeste 0 911 -1.2 19
2017-08-14 14:00:00 30.9 13 Sur 26 Sudeste 0 911.5 -0.7 19
2017-08-14 13:00:00 29.6 15 Sudeste 27 Sur 0 911.9 -0.2 20
2017-08-14 12:00:00 28 13 Sur 27 Sur 0 912.2 0.1 22
2017-08-14 11:00:00 26 14 Sur 24 Sur 0 912.2 -0.1 24
2017-08-14 10:00:00 23.3 3 Sudoeste 9 Sudoeste 0 912.1 0.4 32
2017-08-14 09:00:00 19.8 4 Sur 14 Sur 0 912.1 0.4 41
2017-08-14 08:00:00 16.4 0 Calma 6 Sudoeste 0 912.3 0.6 62
2017-08-14 07:00:00 16.7 3 Nordeste 10 Sudeste 0 911.7 -0.3 59
2017-08-14 06:00:00 17.5 4 Este 7 Este 0 911.7 -0.3 59
2017-08-14 05:00:00 18.3 2 Norte 6 Noroeste 0 911.7 -0.4 55
2017-08-14 04:00:00 19.1 3 Sudoeste 14 Sur 0 912 -0.1 52
2017-08-14 03:00:00 19.9 8 Sur 19 Sur 0 912 -0.1 53
2017-08-14 02:00:00 20.6 9 Sur 26 Sudeste 0 912.1 0.3 55
2017-08-14 01:00:00 21.5 12 Sudeste 28 Sudeste 0 912.1 1 53
2017-08-14 00:00:00 22.3 13 Sudeste 30 Sudeste 0 912.1 1.7 53
2017-08-13 23:00:00 23.8 10 Sudeste 31 Sudeste 0 911.8 1.7 48
2017-08-13 22:00:00 25.8 10 Sudeste 28 Sudeste 0 911.1 1 41
2017-08-13 21:00:00 28 14 Sur 27 Sur 0 910.4 0 32
2017-08-13 20:00:00 29.9 8 Sur 22 Sur 0 910.1 -0.7 22
2017-08-13 19:00:00 31.3 9 Sur 24 Sudoeste 0 910.1 -1 20
2017-08-13 18:00:00 31.7 9 Sur 31 Sudoeste 0 910.4 -1 20
2017-08-13 17:00:00 31.6 14 Sudoeste 31 Sur 0 910.8 -1.1 20
2017-08-13 16:00:00 32 10 Sudoeste 29 Sur 0 911.1 -1.6 19
2017-08-13 15:00:00 31.5 8 Sur 22 Sur 0 911.4 -1.8 18
2017-08-13 14:00:00 30.5 8 Sudeste 23 Sur 0 911.9 -1.6 19
2017-08-13 13:00:00 29.2 12 Sudeste 23 Sudeste 0 912.7 -0.7 20
2017-08-13 12:00:00 27.1 11 Sudeste 24 Sudeste 0 913.2 0.1 26
2017-08-13 11:00:00 25.2 12 Sur 23 Sudeste 0 913.5 0.5 27
2017-08-13 10:00:00 21.6 3 Sur 9 Sur 0 913.4 0.4 45
2017-08-13 09:00:00 18.7 0 Calma 3 Oeste 0 913.1 0.1 52
2017-08-13 08:00:00 15.9 0 Calma 5 Norte 0 913 -0.3 63
2017-08-13 07:00:00 16.2 0 Calma 5 Norte 0 913 -0.3 65
2017-08-13 06:00:00 16.8 2 Sudoeste 5 Sudoeste 0 913 -0.6 64
2017-08-13 05:00:00 17.9 0 Calma 7 Oeste 0 913.3 -0.7 60
2017-08-13 04:00:00 18.4 4 Noroeste 8 Oeste 0 913.3 -1 60
2017-08-13 03:00:00 19 2 Sudeste 14 Sudeste 0 913.6 -0.5 58
2017-08-13 02:00:00 20 7 Sudeste 19 Sudeste 0 914 0.2 55
2017-08-13 01:00:00 20.8 10 Sudeste 30 Sudeste 0 914.3 1.2 53
2017-08-13 00:00:00 22.1 11 Sudeste 27 Sudeste 0 914.1 1.5 51
2017-08-12 23:00:00 24 10 Sudeste 26 Sudeste 0 913.8 1.6 36
2017-08-12 22:00:00 25.4 7 Sudeste 12 Sur 0 913.1 0.9 24
2017-08-12 21:00:00 27.4 8 Sur 18 Sur 0 912.6 0.1 23
2017-08-12 20:00:00 29.6 8 Sur 19 Sudoeste 0 912.2 -0.6 23
2017-08-12 19:00:00 30.9 9 Oeste 21 Oeste 0 912.2 -1.4 21
2017-08-12 18:00:00 31.2 7 Sudoeste 19 Sur 0 912.5 -1.7 21
2017-08-12 17:00:00 31.1 10 Sur 19 Sudoeste 0 912.8 -1.9 19
2017-08-12 16:00:00 30.4 4 Norte 16 Sur 0 913.6 -1.6 16
2017-08-12 15:00:00 29.4 8 Oeste 22 Sudoeste 0 914.2 -1.3 18
2017-08-12 14:00:00 28.1 5 Sudoeste 12 Sudoeste 0 914.7 -1 24
2017-08-12 13:00:00 26.4 5 Oeste 13 Sudoeste 0 915.2 -0.7 27
2017-08-12 12:00:00 24.5 8 Sudoeste 14 Sudoeste 0 915.5 -0.2 37
2017-08-12 11:00:00 22.6 9 Sur 20 Sur 0 915.7 0.3 44
2017-08-12 10:00:00 19.1 3 Noroeste 6 Noroeste 0 915.9 0.7 37
2017-08-12 09:00:00 16.4 4 Norte 6 Norte 0 915.7 0.8 44
2017-08-12 08:00:00 13.1 2 Sur 5 Norte 0 915.4 0.3 47
2017-08-12 07:00:00 13.6 2 Norte 5 Norte 0 915.2 0.1 48
2017-08-12 06:00:00 13.9 2 Nordeste 8 Norte 0 914.9 0.1 42
2017-08-12 05:00:00 14.8 4 Norte 8 Norte 0 915.1 0.1 40
2017-08-12 04:00:00 15.7 2 Norte 5 Sudoeste 0 915.1 0.3 37
2017-08-12 03:00:00 16.4 2 Noroeste 8 Norte 0 914.8 0.1 32
2017-08-12 02:00:00 17.5 0 Calma 8 Nordeste 0 915 0.7 28
2017-08-12 01:00:00 18.6 2 Sudeste 5 Norte 0 914.8 1.2 24
2017-08-12 00:00:00 19.8 2 Sudoeste 11 Norte 0 914.7 1.7 21
2017-08-11 23:00:00 21.9 4 Sudoeste 12 Nordeste 0 914.3 1.6 16
2017-08-11 22:00:00 23.6 4 Nordeste 13 Norte 0 913.6 1 14
2017-08-11 21:00:00 25.7 4 Noroeste 24 Noroeste 0 913 0.1 12
2017-08-11 20:00:00 27.2 10 Noroeste 25 Noroeste 0 912.7 -0.5 11
2017-08-11 19:00:00 28.5 9 Noroeste 26 Norte 0 912.6 -1 11
2017-08-11 18:00:00 28.9 10 Noroeste 27 Noroeste 0 912.9 -1.1 10
2017-08-11 17:00:00 28.5 10 Noroeste 24 Oeste 0 913.2 -1.3 8
2017-08-11 16:00:00 28.4 9 Oeste 23 Oeste 0 913.6 -1.4 9
2017-08-11 15:00:00 27.5 6 Oeste 17 Sudoeste 0 914 -1.5 10
2017-08-11 14:00:00 25.4 6 Oeste 14 Oeste 0 914.5 -1.3 13
2017-08-11 13:00:00 23.4 7 Sur 14 Sudeste 0 915 -0.4 16
2017-08-11 12:00:00 20.7 7 Sudoeste 12 Sudoeste 0 915.5 0.1 27
2017-08-11 11:00:00 17.9 4 Oeste 9 Oeste 0 915.8 0.4 46
2017-08-11 10:00:00 14 0 Calma 6 Nordeste 0 915.4 0.1 56
2017-08-11 09:00:00 12.1 3 Norte 7 Norte 0 915.4 0.3 61
2017-08-11 08:00:00 11 2 Norte 9 Norte 0 915.4 -0.1 64
2017-08-11 07:00:00 11.5 4 Norte 9 Norte 0 915.3 -0.4 62
2017-08-11 06:00:00 12.3 3 Norte 8 Norte 0 915.1 -1 60
2017-08-11 05:00:00 13.3 2 Sudoeste 6 Sur 0 915.5 -0.7 56
2017-08-11 04:00:00 14.3 0 Calma 9 Norte 0 915.7 -0.3 53
2017-08-11 03:00:00 15 4 Norte 16 Nordeste 0 916.1 0.6 50
2017-08-11 02:00:00 16.2 4 Norte 9 Norte 0 916.2 1 47
2017-08-11 01:00:00 17.6 2 Sudeste 12 Sur 0 916 1.5 43
2017-08-11 00:00:00 18.7 4 Oeste 18 Nordeste 0 915.5 1.5 39
2017-08-10 23:00:00 20.2 8 Nordeste 20 Nordeste 0 915.2 1.5 30
2017-08-10 22:00:00 22 5 Norte 18 Noroeste 0 914.5 0.9 27
2017-08-10 21:00:00 23.8 8 Noroeste 23 Noroeste 0 914 0.2 21
2017-08-10 20:00:00 25.4 7 Noroeste 21 Oeste 0 913.7 -0.3 17
2017-08-10 19:00:00 26.4 9 Oeste 21 Noroeste 0 913.6 -0.8 17
2017-08-10 18:00:00 26.7 12 Oeste 25 Noroeste 0 913.8 -1 17
2017-08-10 17:00:00 26.5 10 Noroeste 22 Noroeste 0 914 -1.1 16
2017-08-10 16:00:00 26.4 8 Noroeste 20 Noroeste 0 914.4 -0.9 15
2017-08-10 15:00:00 25.1 6 Sudoeste 19 Oeste 0 914.8 -0.6 18
2017-08-10 14:00:00 24 8 Sur 20 Oeste 0 915.1 -0.4 21
2017-08-10 13:00:00 22.3 9 Sudoeste 19 Sudoeste 0 915.3 -0.4 25
2017-08-10 12:00:00 21 4 Sur 13 Sur 0 915.4 -0.1 26
2017-08-10 11:00:00 18.8 5 Sur 14 Norte 0 915.5 0.8 35
2017-08-10 10:00:00 15.5 4 Norte 16 Noroeste 0 915.7 1.6 43
2017-08-10 09:00:00 12.9 4 Noroeste 11 Noroeste 0 915.5 2 49
2017-08-10 08:00:00 10.4 3 Noroeste 11 Norte 0 914.7 1.1 59
2017-08-10 07:00:00 11.2 4 Norte 10 Norte 0 914.1 0.6 59
2017-08-10 06:00:00 11.9 6 Norte 10 Nordeste 0 913.5 -0.1 59
2017-08-10 05:00:00 12.7 4 Norte 9 Este 0 913.6 0.2 57
2017-08-10 04:00:00 13.3 3 Nordeste 11 Nordeste 0 913.5 0.3 55
2017-08-10 03:00:00 13.7 4 Nordeste 21 Norte 0 913.6 1 53
2017-08-10 02:00:00 14.3 9 Norte 21 Nordeste 0 913.4 1.5 52
2017-08-10 01:00:00 14.6 6 Norte 30 Norte 0 913.2 2.5 53
2017-08-10 00:00:00 14.9 16 Nordeste 34 Nordeste 0 912.6 3 53
2017-08-09 23:00:00 15.8 17 Norte 34 Norte 0 911.9 3.6 52
2017-08-09 22:00:00 17.4 14 Nordeste 38 Norte 0 910.7 3 49
2017-08-09 21:00:00 21 14 Nordeste 34 Norte 0 909.6 2.1 40
2017-08-09 20:00:00 25.4 11 Norte 30 Norte 0 908.3 0.6 32
2017-08-09 19:00:00 27.9 7 Norte 26 Noroeste 0 907.7 -0.2 28
2017-08-09 18:00:00 28.7 11 Sudoeste 27 Sur 0 907.5 -0.8 20
2017-08-09 17:00:00 29.3 14 Sudoeste 27 Oeste 0 907.7 -0.9 15
2017-08-09 16:00:00 29.4 12 Sudoeste 29 Sudoeste 0 907.9 -1.3 16
2017-08-09 15:00:00 27.7 12 Sur 26 Sudeste 0 908.3 -0.8 25
2017-08-09 14:00:00 26.4 9 Sur 30 Sur 0 908.6 -0.8 32
2017-08-09 13:00:00 25.5 12 Sur 25 Sur 0 909.2 -0.5 37
2017-08-09 12:00:00 23.5 15 Sur 29 Sur 0 909.1 -0.3 47
2017-08-09 11:00:00 21.9 15 Sudeste 31 Sur 0 909.4 0.2 58
2017-08-09 10:00:00 19.9 14 Sur 32 Sur 0 909.7 0.6 67
2017-08-09 09:00:00 18.5 15 Sudeste 31 Sudeste 0 909.4 0.1 74
2017-08-09 08:00:00 17.4 12 Sudeste 23 Sudeste 0 909.2 -0.4 79
2017-08-09 07:00:00 17.1 9 Sur 20 Sur 0 909.1 -0.6 81
2017-08-09 06:00:00 17.1 8 Sur 18 Sudeste 0 909.3 -0.5 82
2017-08-09 05:00:00 17.6 10 Sur 19 Sur 0 909.6 -0.4 80
2017-08-09 04:00:00 18.2 9 Sur 21 Sudeste 0 909.7 -0.2 76
2017-08-09 03:00:00 18.7 7 Sudeste 25 Sudeste 0 909.8 0 71
2017-08-09 02:00:00 19.6 13 Sudeste 28 Sudeste 0 910 0.2 67
2017-08-09 01:00:00 20.6 12 Sudeste 26 Sudeste 0 909.9 0.5 61
2017-08-09 00:00:00 21.3 2 Oeste 10 Norte 0 909.8 0.9 28
2017-08-08 23:00:00 23 3 Sudoeste 8 Norte 0 909.8 1.1 25
2017-08-08 22:00:00 24.8 2 Nordeste 12 Noroeste 0 909.4 0.7 21
2017-08-08 21:00:00 26.3 5 Noroeste 17 Noroeste 0 908.9 0.2 19
2017-08-08 20:00:00 27.9 5 Noroeste 23 Noroeste 0 908.7 0.1 17
2017-08-08 19:00:00 29.2 8 Oeste 24 Oeste 0 908.7 0 15
2017-08-08 18:00:00 29.9 8 Noroeste 22 Noroeste 0 908.7 -0.1 16
2017-08-08 17:00:00 29.7 11 Noroeste 28 Oeste 0 908.6 -0.3 14
2017-08-08 16:00:00 29.1 7 Oeste 26 Noroeste 0 908.7 -0.3 18
2017-08-08 15:00:00 28.2 8 Oeste 26 Noroeste 0 908.8 0 19
2017-08-08 14:00:00 27.5 11 Oeste 25 Noroeste 0 908.9 0.3 20
2017-08-08 13:00:00 26.6 12 Noroeste 24 Noroeste 0 909 0.8 21
2017-08-08 12:00:00 25.5 9 Oeste 22 Sudoeste 0 908.8 0.8 20
2017-08-08 11:00:00 23.8 8 Oeste 14 Sudoeste 0 908.6 1 23
2017-08-08 10:00:00 21.7 4 Noroeste 10 Oeste 0 908.2 0.7 27
2017-08-08 09:00:00 19.3 0 Calma 7 Norte 0 908 0.8 29
2017-08-08 08:00:00 16.6 2 Sudoeste 6 Norte 0 907.6 0.2 32
2017-08-08 07:00:00 18.2 0 Calma 7 Norte 0 907.5 0 28
2017-08-08 06:00:00 20.1 0 Calma 5 Noroeste 0 907.2 -0.5 25
2017-08-08 05:00:00 21.8 2 Oeste 9 Oeste 0 907.4 -0.7 22
2017-08-08 04:00:00 22.8 4 Oeste 11 Sudoeste 0 907.5 -0.6 19
2017-08-08 03:00:00 24.1 3 Sudoeste 12 Oeste 0 907.7 0 16
2017-08-08 02:00:00 25 3 Oeste 12 Sudoeste 0 908.1 0.5 15
2017-08-08 01:00:00 26.3 0 Calma 7 Oeste 0 908.1 0.6 13
2017-08-08 00:00:00 27.4 3 Sur 10 Oeste 0 907.7 0.6 12
2017-08-07 23:00:00 29.2 8 Oeste 32 Oeste 0 907.6 1 11
2017-08-07 22:00:00 30.5 11 Oeste 28 Oeste 0 907.5 0.5 12
2017-08-07 21:00:00 32 15 Oeste 34 Oeste 0 907.1 -0.3 11
2017-08-07 20:00:00 33.8 16 Oeste 45 Oeste 0 906.6 -1.2 10
2017-08-07 19:00:00 35.1 19 Oeste 50 Oeste 0 907 -1.6 10
2017-08-07 18:00:00 34.9 20 Oeste 44 Oeste 0 907.4 -1.7 9
2017-08-07 17:00:00 35.5 18 Sudoeste 37 Oeste 0 907.8 -1.9 9
2017-08-07 16:00:00 34.9 15 Oeste 32 Oeste 0 908.6 -1.6 10
2017-08-07 15:00:00 33.8 15 Oeste 34 Sudoeste 0 909.1 -1.6 11
2017-08-07 14:00:00 33 11 Oeste 33 Oeste 0 909.7 -0.7 12
2017-08-07 13:00:00 31.1 10 Oeste 22 Oeste 0 910.2 -0.3 19
2017-08-07 12:00:00 28.8 11 Sudoeste 23 Sudoeste 0 910.7 0 31
2017-08-07 11:00:00 26.4 8 Sudeste 20 Sur 0 910.4 -0.1 47
2017-08-07 10:00:00 23.8 10 Sur 21 Sudeste 0 910.5 -0.1 58
2017-08-07 09:00:00 21.7 9 Sur 17 Sur 0 910.7 0.3 76
2017-08-07 08:00:00 19.8 6 Sudeste 16 Sudeste 0 910.5 0 83
2017-08-07 07:00:00 19.5 4 Sudeste 10 Sudeste 0 910.6 -0.1 85
2017-08-07 06:00:00 19.9 4 Este 10 Sudeste 0 910.4 -0.4 83
2017-08-07 05:00:00 20.5 3 Sudeste 18 Sudeste 0 910.5 -0.6 81
2017-08-07 04:00:00 21 6 Sudeste 19 Sudeste 0 910.7 -0.5 81
2017-08-07 03:00:00 21.6 12 Sur 28 Sur 0 910.8 -0.4 79
2017-08-07 02:00:00 22.3 14 Sur 30 Sudeste 0 911.1 -0.1 77
2017-08-07 01:00:00 22.8 15 Sudeste 43 Sudeste 0 911.2 0.8 75
2017-08-07 00:00:00 23.6 14 Sudeste 39 Sudeste 0 911.2 1.4 72
2017-08-06 23:00:00 24.4 14 Sudeste 33 Este 0 911.2 1.7 69
2017-08-06 22:00:00 25.6 14 Sudeste 31 Sudeste 0 910.4 1.2 62
2017-08-06 21:00:00 27.5 17 Sudeste 37 Sudeste 0 909.8 0.5 54
2017-08-06 20:00:00 30.2 19 Sur 42 Sudeste 0 909.5 -0.2 44
2017-08-06 19:00:00 32.7 18 Sudeste 37 Sur 0 909.2 -0.9 36
2017-08-06 18:00:00 34 15 Sur 28 Sudeste 0 909.3 -1.1 29
2017-08-06 17:00:00 34.4 13 Sur 28 Sudoeste 0 909.7 -1 23
2017-08-06 16:00:00 34.3 13 Sur 30 Sur 0 910.1 -1.1 22
2017-08-06 15:00:00 33.2 13 Sur 31 Sudeste 0 910.4 -1.1 26
2017-08-06 14:00:00 33.1 14 Sur 28 Sudeste 0 910.7 -0.6 27
2017-08-06 13:00:00 31.5 15 Sur 28 Sudeste 0 911.2 0.1 34
2017-08-06 12:00:00 29.9 14 Sudeste 24 Sur 0 911.5 0.8 38
2017-08-06 11:00:00 28 13 Sur 24 Sudeste 0 911.3 0.8 40
2017-08-06 10:00:00 26.5 10 Sudeste 22 Sur 0 911.1 1.2 43
2017-08-06 09:00:00 24.1 0 Calma 7 Sudeste 0 910.7 1.1 49
2017-08-06 08:00:00 20.9 3 Sudeste 6 Sudeste 0 910.5 0.8 58
2017-08-06 07:00:00 21.4 2 Sudoeste 4 Sudoeste 0 909.9 0.1 56
2017-08-06 06:00:00 21.9 2 Oeste 5 Oeste 0 909.6 -0.4 55
2017-08-06 05:00:00 22.7 3 Sudoeste 7 Sur 0 909.7 -0.2 51
2017-08-06 04:00:00 23.6 2 Sudeste 8 Sudeste 0 909.8 -0.5 48
2017-08-06 03:00:00 24.9 3 Sur 22 Sur 0 910 0 45
2017-08-06 02:00:00 25.5 5 Sur 24 Sur 0 909.9 0.3 44
2017-08-06 01:00:00 26.5 13 Sudeste 30 Sudeste 0 910.3 1.6 45
2017-08-06 00:00:00 26.6 14 Sudeste 37 Sudeste 0 910 2 49
2017-08-05 23:00:00 28 15 Sudeste 37 Sudeste 0 909.6 1.8 44
2017-08-05 22:00:00 30.7 17 Sudeste 37 Sudeste 0 908.7 0.9 38
2017-08-05 21:00:00 34 3 Sudoeste 12 Oeste 0 908 -0.1 20
2017-08-05 20:00:00 35.4 6 Oeste 25 Oeste 0 907.8 -0.8 18
2017-08-05 19:00:00 37.3 13 Oeste 31 Oeste 0 907.8 -1.4 14
2017-08-05 18:00:00 37.4 9 Oeste 27 Sudoeste 0 908.1 -1.7 16
2017-08-05 17:00:00 37.1 9 Sudoeste 26 Oeste 0 908.6 -1.9 16
2017-08-05 16:00:00 37.6 13 Sudoeste 29 Sudoeste 0 909.2 -1.8 17
2017-08-05 15:00:00 36.8 10 Oeste 23 Oeste 0 909.8 -1.5 18
2017-08-05 14:00:00 36.4 11 Sudoeste 21 Sur 0 910.5 -0.8 19
2017-08-05 13:00:00 34.5 8 Sur 21 Sudeste 0 911 -0.4 24
2017-08-05 12:00:00 32.1 10 Sudeste 22 Sur 0 911.3 -0.1 29
2017-08-05 11:00:00 30.4 13 Sur 23 Sur 0 911.3 0.2 31
2017-08-05 10:00:00 26.8 4 Sudoeste 5 Sudoeste 0 911.4 0.4 44
2017-08-05 09:00:00 23.6 3 Oeste 5 Oeste 0 911.4 0.5 53
2017-08-05 08:00:00 21 0 Calma 3 Este 0 911.1 0.1 60
2017-08-05 07:00:00 21.4 0 Calma 3 Oeste 0 911 -0.1 58
2017-08-05 06:00:00 22.1 0 Calma 5 Oeste 0 910.9 -0.4 55
2017-08-05 05:00:00 23 3 Sudeste 5 Norte 0 911 -0.3 53
2017-08-05 04:00:00 24 2 Oeste 9 Norte 0 911.1 -0.3 49
2017-08-05 03:00:00 25.3 3 Sudoeste 12 Sur 0 911.3 0.2 45
2017-08-05 02:00:00 26.9 8 Sudeste 19 Sudeste 0 911.3 0.3 41
2017-08-05 01:00:00 27.1 7 Sudeste 18 Sudeste 0 911.4 0.9 40
2017-08-05 00:00:00 27.4 0 Calma 9 Norte 0 911.1 1.2 33
2017-08-04 23:00:00 29.8 5 Norte 8 Norte 0 911 1.3 26
2017-08-04 22:00:00 31.9 3 Norte 9 Noroeste 0 910.5 0.7 24
2017-08-04 21:00:00 33.9 6 Noroeste 18 Noroeste 0 909.9 0 21
2017-08-04 20:00:00 35.7 5 Noroeste 19 Oeste 0 909.7 -0.6 18
2017-08-04 19:00:00 37 9 Oeste 19 Noroeste 0 909.8 -1 17
2017-08-04 18:00:00 37.1 8 Noroeste 21 Noroeste 0 909.9 -1.5 17
2017-08-04 17:00:00 37.2 4 Noroeste 13 Noroeste 0 910.3 -1.7 17
2017-08-04 16:00:00 36.5 5 Noroeste 20 Sudoeste 0 910.8 -1.8 17
2017-08-04 15:00:00 35.9 6 Oeste 14 Noroeste 0 911.4 -1.6 17
2017-08-04 14:00:00 34.8 5 Este 17 Sudoeste 0 912 -0.9 18
2017-08-04 13:00:00 33.6 6 Sudoeste 12 Sudoeste 0 912.6 -0.2 19
2017-08-04 12:00:00 31.2 4 Sur 9 Sudoeste 0 913 0.4 23
2017-08-04 11:00:00 27.8 4 Sudoeste 8 Noroeste 0 912.9 0.4 34
2017-08-04 10:00:00 23.3 3 Norte 7 Norte 0 912.8 0.6 36
2017-08-04 09:00:00 19.9 0 Calma 7 Sur 0 912.6 0.6 46
2017-08-04 08:00:00 17.4 0 Calma 8 Norte 0 912.5 0.7 52
2017-08-04 07:00:00 17.9 2 Sudeste 10 Norte 0 912.2 0.3 51
2017-08-04 06:00:00 18.6 9 Norte 22 Noroeste 0 912 0.1 41
2017-08-04 05:00:00 19.2 3 Sur 9 Norte 0 911.8 -0.2 46
2017-08-04 04:00:00 19.8 2 Sudeste 5 Norte 0 911.9 -0.2 46
2017-08-04 03:00:00 20.7 3 Sudoeste 6 Sudoeste 0 911.9 -0.3 45
2017-08-04 02:00:00 21.9 2 Sudoeste 5 Sudoeste 0 912 -0.1 41
2017-08-04 01:00:00 23.6 2 Sudoeste 6 Oeste 0 912.1 0.5 37
2017-08-04 00:00:00 25.7 2 Sudoeste 9 Norte 0 912.2 1.2 31
2017-08-03 23:00:00 28.2 3 Norte 9 Noroeste 0 912.1 1.3 19
2017-08-03 22:00:00 29.9 0 Calma 11 Noroeste 0 911.6 1 19
2017-08-03 21:00:00 32 7 Noroeste 21 Noroeste 0 911 0 16
2017-08-03 20:00:00 33.7 9 Noroeste 24 Noroeste 0 910.8 -0.5 16
2017-08-03 19:00:00 35.1 10 Oeste 27 Noroeste 0 910.6 -1 16
2017-08-03 18:00:00 35.4 10 Oeste 23 Noroeste 0 911 -1 18
2017-08-03 17:00:00 35.9 4 Noroeste 19 Noroeste 0 911.3 -1.3 18
2017-08-03 16:00:00 34.7 6 Este 17 Sur 0 911.6 -1.5 22
2017-08-03 15:00:00 34 5 Sudeste 16 Sudoeste 0 912 -1.4 25
2017-08-03 14:00:00 33.1 11 Sur 17 Sur 0 912.6 -1.1 24
2017-08-03 13:00:00 31.5 6 Sur 12 Sudeste 0 913.1 -0.7 30
2017-08-03 12:00:00 29.2 5 Oeste 11 Oeste 0 913.4 -0.3 43
2017-08-03 11:00:00 26.8 3 Sudoeste 9 Sudoeste 0 913.7 0.3 48
2017-08-03 10:00:00 23.8 2 Sudeste 5 Sudeste 0 913.8 0.6 59
2017-08-03 09:00:00 20.4 2 Norte 5 Norte 0 913.7 0.9 67
2017-08-03 08:00:00 17.9 0 Calma 5 Sudoeste 0 913.4 0.6 79
2017-08-03 07:00:00 18.1 2 Sudoeste 4 Sudoeste 0 913.2 0.4 80
2017-08-03 06:00:00 18.8 3 Sur 5 Sudoeste 0 912.8 -0.3 78
2017-08-03 05:00:00 19.5 0 Calma 4 Norte 0 912.8 -0.8 72
2017-08-03 04:00:00 20 0 Calma 6 Norte 0 912.8 -1 74
2017-08-03 03:00:00 20.7 0 Calma 6 Norte 0 913.1 -0.6 67
2017-08-03 02:00:00 21.3 2 Nordeste 4 Este 0 913.6 0.1 68
2017-08-03 01:00:00 22.2 2 Este 9 Noroeste 0 913.8 0.9 65
2017-08-03 00:00:00 23.2 3 Noroeste 9 Noroeste 0 913.7 1.4 60
2017-08-02 23:00:00 23.8 5 Sudeste 19 Sudeste 0 913.5 1.3 59
2017-08-02 22:00:00 24.5 6 Sudeste 18 Sudeste 0 912.9 0.9 57
2017-08-02 21:00:00 25.1 6 Sudeste 20 Sur 0 912.3 0.3 62
2017-08-02 20:00:00 26.3 10 Sur 26 Sudeste 0 912.2 0.3 54
2017-08-02 19:00:00 26.8 14 Sudeste 43 Sudeste 1 912 -0.3 49
2017-08-02 18:00:00 27.3 12 Sudeste 31 Este 1 912 -0.4 57
2017-08-02 17:00:00 31 13 Sudeste 34 Sudeste 0 911.9 -0.5 34
2017-08-02 16:00:00 30.4 16 Sudeste 32 Sudeste 0 912.3 -0.8 33
2017-08-02 15:00:00 29.7 18 Sudeste 36 Sur 0 912.4 -1 32
2017-08-02 14:00:00 29.6 9 Sudeste 29 Sudeste 0 912.4 -0.6 34
2017-08-02 13:00:00 24.3 5 Sudoeste 19 Sur 0 913.1 0.2 51
2017-08-02 12:00:00 21.9 4 Oeste 11 Norte 0 913.4 0.7 62
2017-08-02 11:00:00 21.5 3 Oeste 31 Sudeste 0 913 0.3 63
2017-08-02 10:00:00 21.1 7 Este 26 Sudeste 1.4 912.9 0.4 70
2017-08-02 09:00:00 22.4 7 Sudeste 22 Sudeste 0 912.7 0.8 59
2017-08-02 08:00:00 21.7 6 Sudeste 23 Sudeste 0.4 912.7 0.8 66
2017-08-02 07:00:00 23 9 Sur 22 Sudeste 0 912.5 0 56
2017-08-02 06:00:00 22.5 6 Sur 24 Sudeste 0 911.9 -0.7 55
2017-08-02 05:00:00 22.3 5 Sur 17 Sudeste 0 911.9 -0.7 62
2017-08-02 04:00:00 21.7 6 Sudeste 13 Sudeste 0 912.5 0.4 66
2017-08-02 03:00:00 22.7 7 Sur 19 Sudeste 0 912.6 0.7 62
2017-08-02 02:00:00 23.1 7 Sudeste 18 Sur 0 912.6 0.6 59
2017-08-02 01:00:00 24.1 11 Sudeste 30 Sudeste 0 912.1 1.2 56
2017-08-02 00:00:00 24.4 13 Sudeste 35 Sudeste 0 911.9 1.9 55
2017-08-01 23:00:00 25.8 8 Sudeste 17 Sur 0 912 2.7 39
2017-08-01 22:00:00 27.7 3 Este 10 Sudeste 0 910.9 1.6 16
2017-08-01 21:00:00 29.4 4 Oeste 14 Oeste 0 910 1.1 14
2017-08-01 20:00:00 31 8 Oeste 25 Oeste 0 909.3 0.4 14
2017-08-01 19:00:00 32.1 11 Sur 35 Sudeste 0 909.3 0 14
2017-08-01 18:00:00 32.4 11 Sur 24 Sudeste 0 908.9 -0.6 13
2017-08-01 17:00:00 32.6 13 Sur 28 Sudeste 0 908.9 -0.6 12
2017-08-01 16:00:00 32.2 13 Sur 23 Sudoeste 0 909.3 -0.3 13
2017-08-01 15:00:00 30.6 8 Sur 24 Sudeste 0 909.5 0.1 17
2017-08-01 14:00:00 29.1 9 Sur 18 Sudoeste 0 909.5 0.5 24
2017-08-01 13:00:00 26.3 5 Sur 13 Noroeste 0 909.6 0.8 35
2017-08-01 12:00:00 24.9 7 Noroeste 13 Oeste 0 909.4 0.9 55
2017-08-01 11:00:00 24.1 3 Sudoeste 11 Sur 0 909 1.2 60
2017-08-01 10:00:00 22.2 5 Oeste 10 Este 0 908.8 1.5 67
2017-08-01 09:00:00 20.5 4 Sur 7 Sur 0 908.5 1.9 71
2017-08-01 08:00:00 19 3 Oeste 8 Noroeste 0 907.8 1.2 56
2017-08-01 07:00:00 19.2 4 Noroeste 12 Noroeste 0 907.3 1 69
2017-08-01 06:00:00 20.3 5 Sur 10 Sur 0 906.6 0.2 74
2017-08-01 05:00:00 20.9 3 Oeste 5 Sudoeste 0 906.6 -0.2 54
2017-08-01 04:00:00 21.9 3 Oeste 15 Sudeste 0 906.3 -0.4 66
2017-08-01 03:00:00 22.8 9 Sudeste 25 Sudeste 0 906.4 0.1 65
2017-08-01 02:00:00 22.7 5 Norte 11 Oeste 0 906.8 0.8 40
2017-08-01 01:00:00 24.5 2 Sudeste 9 Sudoeste 0 906.7 1.9 35
2017-08-01 00:00:00 26 4 Nordeste 10 Nordeste 0 906.3 2 25
2017-07-31 23:00:00 27.4 2 Nordeste 8 Nordeste 0 906 2 20
2017-07-31 22:00:00 29.7 0 Calma 9 Sudoeste 0 904.8 0.6 17
2017-07-31 21:00:00 31.5 6 Oeste 19 Sudoeste 0 904.3 -0.3 15
2017-07-31 20:00:00 32.9 9 Sudoeste 26 Oeste 0 904 -1.1 14
2017-07-31 19:00:00 33.9 14 Sudoeste 30 Sudoeste 0 904.2 -1.2 13
2017-07-31 18:00:00 34.7 12 Sudoeste 36 Oeste 0 904.6 -1.1 12
2017-07-31 17:00:00 34.2 20 Sudoeste 39 Sur 0 905.1 -1.1 11
2017-07-31 16:00:00 34.7 15 Sudoeste 35 Oeste 0 905.4 -1 14
2017-07-31 15:00:00 33.7 12 Sudoeste 30 Sudoeste 0 905.7 -0.9 18
2017-07-31 14:00:00 32.7 12 Sudoeste 28 Sudoeste 0 906.2 -0.5 21
2017-07-31 13:00:00 31.8 7 Sur 24 Oeste 0 906.4 -0.2 24
2017-07-31 12:00:00 29.9 10 Sur 20 Sudeste 0 906.6 0.3 25
2017-07-31 11:00:00 27.7 9 Sur 21 Sur 0 906.7 0.5 34
2017-07-31 10:00:00 25.9 10 Sudeste 21 Sur 0 906.6 0.4 43
2017-07-31 09:00:00 23.4 9 Sudeste 18 Sudeste 0 906.3 0.4 50
2017-07-31 08:00:00 20.8 2 Sur 10 Sur 0 906.2 0 59
2017-07-31 07:00:00 21.5 4 Sur 12 Sudeste 0 906.2 -0.2 57
2017-07-31 06:00:00 22.6 6 Sudeste 15 Sudeste 0 905.9 -0.7 54
2017-07-31 05:00:00 22.8 7 Sudeste 16 Sudeste 0 906.2 -0.6 52
2017-07-31 04:00:00 23.8 7 Sur 20 Sur 0 906.4 -0.6 50
2017-07-31 03:00:00 25.2 10 Sudeste 22 Sudeste 0 906.6 -0.4 46
2017-07-31 02:00:00 26.1 10 Sudeste 19 Sudeste 0 906.8 -0.2 43
2017-07-31 01:00:00 27 8 Sudeste 21 Sudeste 0 907 0.9 38
2017-07-31 00:00:00 27.9 8 Sudeste 21 Sudeste 0 907 1 32
2017-07-30 23:00:00 29.1 7 Sudeste 19 Sudeste 0 907 0.9 27
2017-07-30 22:00:00 31.3 3 Sudeste 13 Oeste 0 906.1 -0.3 18
2017-07-30 21:00:00 33 6 Oeste 22 Sudoeste 0 906 -1 16
2017-07-30 20:00:00 34.3 10 Oeste 29 Oeste 0 906.1 -1.4 14
2017-07-30 19:00:00 35.6 12 Sudoeste 35 Sudoeste 0 906.4 -1.4 13
2017-07-30 18:00:00 35.4 17 Sudoeste 37 Sudoeste 0 907 -1.3 13
2017-07-30 17:00:00 35.6 15 Sudoeste 35 Sudoeste 0 907.5 -1.3 12
2017-07-30 16:00:00 35.6 12 Oeste 31 Sudoeste 0 907.8 -1.1 13
2017-07-30 15:00:00 35.1 12 Sudoeste 29 Sudoeste 0 908.3 -1.3 15
2017-07-30 14:00:00 35 13 Sudoeste 28 Sur 0 908.8 -1 13
2017-07-30 13:00:00 34.3 7 Oeste 17 Oeste 0 908.9 -1 17
2017-07-30 12:00:00 32.1 4 Sur 9 Sur 0 909.6 -0.5 21
2017-07-30 11:00:00 28.8 3 Sur 7 Sur 0 909.8 -0.1 27
2017-07-30 10:00:00 24.6 0 Calma 4 Sur 0 909.9 0.2 31
2017-07-30 09:00:00 20.6 3 Oeste 7 Oeste 0 910.1 0.3 37
2017-07-30 08:00:00 18.7 2 Nordeste 7 Oeste 0 909.9 0 38
2017-07-30 07:00:00 18.7 2 Oeste 5 Oeste 0 909.7 -0.4 35
2017-07-30 06:00:00 19.4 0 Calma 5 Norte 0 909.8 -0.7 32
2017-07-30 05:00:00 20.1 2 Sudoeste 3 Sudoeste 0 909.9 -0.9 32
2017-07-30 04:00:00 21.2 0 Calma 7 Norte 0 910.1 -0.8 29
2017-07-30 03:00:00 21.8 0 Calma 7 Norte 0 910.5 -0.2 27
2017-07-30 02:00:00 22.4 3 Sudoeste 10 Norte 0 910.8 0.2 26
2017-07-30 01:00:00 23.8 0 Calma 5 Nordeste 0 910.9 0.6 23
2017-07-30 00:00:00 25.5 2 Noroeste 9 Norte 0 910.7 0.6 20
2017-07-29 23:00:00 27.7 0 Calma 8 Norte 0 910.6 0.5 18
2017-07-29 22:00:00 30.1 4 Norte 10 Noroeste 0 910.3 0.3 15
2017-07-29 21:00:00 32 5 Noroeste 15 Noroeste 0 910.1 -0.1 13
2017-07-29 20:00:00 33.3 10 Noroeste 24 Noroeste 0 910.1 -0.4 13
2017-07-29 19:00:00 33.8 9 Noroeste 26 Oeste 0 910 -0.5 15
2017-07-29 18:00:00 34.4 9 Oeste 25 Oeste 0 910.2 -0.7 12
2017-07-29 17:00:00 34.9 11 Oeste 31 Noroeste 0 910.5 -0.8 12
2017-07-29 16:00:00 35.8 13 Noroeste 32 Noroeste 0 910.5 -1.2 10
2017-07-29 15:00:00 35.2 10 Sudoeste 30 Noroeste 0 910.9 -1.3 11
2017-07-29 14:00:00 34.5 10 Sudoeste 27 Oeste 0 911.3 -1 13
2017-07-29 13:00:00 33.6 9 Sudoeste 21 Sudoeste 0 911.7 -0.7 16
2017-07-29 12:00:00 31.1 7 Sudoeste 15 Sudoeste 0 912.2 0.1 23
2017-07-29 11:00:00 28.4 6 Sur 13 Sur 0 912.3 0.4 35
2017-07-29 10:00:00 24.7 4 Sur 6 Sudoeste 0 912.4 0.9 53
2017-07-29 09:00:00 21 0 Calma 5 Oeste 0 912.1 1 66
2017-07-29 08:00:00 18.3 0 Calma 5 Oeste 0 911.9 0.9 76
2017-07-29 07:00:00 19.3 0 Calma 4 Oeste 0 911.5 0.3 77
2017-07-29 06:00:00 20.1 2 Sudoeste 6 Noroeste 0 911.1 -0.6 72
2017-07-29 05:00:00 21 4 Oeste 7 Oeste 0 911 -0.8 70
2017-07-29 04:00:00 22 0 Calma 7 Sudeste 0 911.2 -0.4 65
2017-07-29 03:00:00 22.9 3 Sur 9 Sudeste 0 911.7 0.1 66
2017-07-29 02:00:00 24.3 4 Sur 17 Sur 0 911.8 0.8 58
2017-07-29 01:00:00 25.4 8 Sudeste 19 Sudeste 0 911.6 1.3 53
2017-07-29 00:00:00 25.9 5 Sur 15 Sudeste 0 911.6 1.7 28
2017-07-28 23:00:00 27.9 4 Norte 8 Norte 0 911 1.3 17
2017-07-28 22:00:00 30.3 3 Norte 10 Norte 0 910.3 0.7 14
2017-07-28 21:00:00 32.9 5 Noroeste 14 Oeste 0 909.9 0.1 13
2017-07-28 20:00:00 34.4 7 Oeste 21 Oeste 0 909.7 -0.3 10
2017-07-28 19:00:00 35.6 7 Sudoeste 26 Oeste 0 909.6 -0.8 10
2017-07-28 18:00:00 36.2 10 Oeste 25 Sudoeste 0 909.8 -1 10
2017-07-28 17:00:00 36.4 9 Oeste 24 Oeste 0 910 -1.1 10
2017-07-28 16:00:00 35.7 12 Oeste 25 Noroeste 0 910.4 -0.9 11
2017-07-28 15:00:00 35.2 10 Oeste 29 Noroeste 0 910.8 -0.7 13
2017-07-28 14:00:00 34.9 11 Oeste 23 Noroeste 0 911.1 -0.4 15
2017-07-28 13:00:00 33.9 12 Oeste 24 Sudoeste 0 911.3 -0.3 17
2017-07-28 12:00:00 31.3 3 Sur 10 Noroeste 0 911.5 0.1 25
2017-07-28 11:00:00 28.1 3 Oeste 7 Oeste 0 911.5 0.5 32
2017-07-28 10:00:00 24 3 Oeste 5 Sudoeste 0 911.6 0.8 41
2017-07-28 09:00:00 21 2 Sur 5 Oeste 0 911.4 1 46
2017-07-28 08:00:00 18.9 2 Oeste 6 Oeste 0 911 0.9 49
2017-07-28 07:00:00 19.2 2 Sudeste 9 Oeste 0 910.8 0.9 46
2017-07-28 06:00:00 20.2 3 Sudeste 6 Oeste 0 910.4 0.4 43
2017-07-28 05:00:00 20.6 0 Calma 5 Sudeste 0 910.1 0 40
2017-07-28 04:00:00 21 3 Sur 7 Oeste 0 909.9 0.2 38
2017-07-28 03:00:00 22.2 2 Noroeste 8 Sudoeste 0 910 0.3 34
2017-07-28 02:00:00 22.9 2 Sur 6 Sudoeste 0 910.1 0.6 34
2017-07-28 01:00:00 24.7 0 Calma 8 Norte 0 909.7 0.6 30
2017-07-28 00:00:00 26.5 3 Norte 8 Norte 0 909.7 1.1 27
2017-07-27 23:00:00 28.5 5 Norte 10 Norte 0 909.5 1.2 24
2017-07-27 22:00:00 30.3 3 Norte 13 Noroeste 0 909.1 0.7 21
2017-07-27 21:00:00 32.3 5 Noroeste 19 Noroeste 0 908.6 0 20
2017-07-27 20:00:00 33.7 8 Oeste 27 Sudoeste 0 908.3 -0.6 17
2017-07-27 19:00:00 35.2 10 Sudoeste 26 Oeste 0 908.4 -0.9 15
2017-07-27 18:00:00 35.3 10 Oeste 26 Oeste 0 908.6 -1.1 16
2017-07-27 17:00:00 35.5 10 Sudoeste 32 Oeste 0 908.9 -1.2 17
2017-07-27 16:00:00 34.8 13 Sudoeste 29 Noroeste 0 909.3 -1.2 19
2017-07-27 15:00:00 34.4 8 Oeste 30 Sudoeste 0 909.7 -1.3 19
2017-07-27 14:00:00 33.9 7 Oeste 22 Oeste 0 910.1 -1 21
2017-07-27 13:00:00 32.5 8 Sudoeste 18 Sudoeste 0 910.5 -0.9 22
2017-07-27 12:00:00 30.4 6 Sudoeste 13 Sur 0 911 -0.2 27
2017-07-27 11:00:00 27.7 5 Sur 9 Sudoeste 0 911.1 0.3 39
2017-07-27 10:00:00 24.1 2 Sur 7 Sudoeste 0 911.4 0.8 44
2017-07-27 09:00:00 20.9 2 Nordeste 5 Norte 0 911.2 0.6 51
2017-07-27 08:00:00 17.9 0 Calma 5 Nordeste 0 910.8 0.3 58
2017-07-27 07:00:00 18.2 2 Norte 4 Norte 0 910.6 0 56
2017-07-27 06:00:00 18.8 3 Norte 5 Norte 0 910.6 0 53
2017-07-27 05:00:00 19.7 3 Sudoeste 4 Oeste 0 910.5 0 50
2017-07-27 04:00:00 20.6 2 Oeste 5 Norte 0 910.6 0 48
2017-07-27 03:00:00 21.2 2 Nordeste 11 Nordeste 0 910.6 0.1 44
2017-07-27 02:00:00 21.9 2 Norte 8 Norte 0 910.5 0.4 38
2017-07-27 01:00:00 23.1 2 Sur 6 Sudoeste 0 910.6 1.1 35
2017-07-27 00:00:00 24.8 3 Sudoeste 6 Sudoeste 0 910.5 1.3 32
2017-07-26 23:00:00 26.4 3 Noroeste 10 Norte 0 910.1 1.4 29
2017-07-26 22:00:00 27.9 4 Norte 14 Norte 0 909.5 0.9 26
2017-07-26 21:00:00 29.6 6 Noroeste 17 Noroeste 0 909.2 0.5 23
2017-07-26 20:00:00 31.2 5 Noroeste 24 Noroeste 0 908.7 -0.2 22
2017-07-26 19:00:00 32.2 10 Noroeste 29 Oeste 0 908.6 -0.8 20
2017-07-26 18:00:00 32.7 6 Noroeste 23 Norte 0 908.7 -0.8 20
2017-07-26 17:00:00 32.8 4 Noroeste 25 Nordeste 0 908.9 -1.1 20
2017-07-26 16:00:00 31.9 8 Noroeste 29 Oeste 0 909.4 -0.8 21
2017-07-26 15:00:00 30.9 7 Noroeste 23 Noroeste 0 909.5 -1.1 22
2017-07-26 14:00:00 29.9 8 Norte 23 Nordeste 0 910 -0.7 21
2017-07-26 13:00:00 28.8 8 Norte 21 Norte 0 910.2 -0.7 18
2017-07-26 12:00:00 26.4 6 Norte 23 Norte 0 910.6 -0.2 25
2017-07-26 11:00:00 23.8 6 Norte 17 Norte 0 910.7 0.3 30
2017-07-26 10:00:00 20.8 7 Norte 17 Norte 0 910.9 0.7 32
2017-07-26 09:00:00 16.8 6 Norte 12 Norte 0 910.8 0.7 48
2017-07-26 08:00:00 13.9 2 Este 10 Norte 0 910.4 0.4 56
2017-07-26 07:00:00 14 4 Noroeste 14 Norte 0 910.2 -0.3 55
2017-07-26 06:00:00 15.1 3 Norte 10 Norte 0 910.1 -0.2 51
2017-07-26 05:00:00 15.8 3 Norte 12 Norte 0 910 -0.2 48
2017-07-26 04:00:00 17.2 4 Norte 14 Norte 0 910.5 0.2 44
2017-07-26 03:00:00 18.1 2 Sur 9 Norte 0 910.3 0.2 41
2017-07-26 02:00:00 19 5 Norte 9 Norte 0 910.2 0.7 37
2017-07-26 01:00:00 21 4 Noroeste 12 Nordeste 0 910.3 1.5 32
2017-07-26 00:00:00 22.2 3 Sudoeste 9 Nordeste 0 910.1 1.8 29
2017-07-25 23:00:00 23.7 6 Nordeste 15 Nordeste 0 909.5 1.6 24
2017-07-25 22:00:00 24.9 7 Norte 24 Norte 0 908.8 1.1 22
2017-07-25 21:00:00 26.5 6 Norte 22 Noroeste 0 908.3 0.4 19
2017-07-25 20:00:00 28.4 9 Noroeste 31 Noroeste 0 907.9 -0.2 16
2017-07-25 19:00:00 29.5 14 Noroeste 31 Noroeste 0 907.7 -1 15
2017-07-25 18:00:00 30.8 10 Noroeste 30 Noroeste 0 907.9 -1.3 17
2017-07-25 17:00:00 30.7 10 Noroeste 23 Oeste 0 908.1 -1.6 16
2017-07-25 16:00:00 30 9 Noroeste 24 Noroeste 0 908.7 -1.4 15
2017-07-25 15:00:00 29 10 Oeste 23 Noroeste 0 909.2 -1.4 18
2017-07-25 14:00:00 27.2 11 Oeste 23 Noroeste 0 909.7 -1.4 24
2017-07-25 13:00:00 25.9 10 Oeste 21 Oeste 0 910.1 -1.3 29
2017-07-25 12:00:00 24 9 Oeste 17 Oeste 0 910.6 -0.8 35
2017-07-25 11:00:00 21.5 6 Noroeste 13 Oeste 0 911.1 -0.3 46
2017-07-25 10:00:00 19.1 5 Noroeste 15 Norte 0 911.4 -0.1 50
2017-07-25 09:00:00 16.6 6 Norte 17 Norte 0 911.4 -0.2 60
2017-07-25 08:00:00 14 2 Noroeste 10 Norte 0 911.4 -0.3 65
2017-07-25 07:00:00 14.7 4 Norte 9 Norte 0 911.5 -0.5 64
2017-07-25 06:00:00 15.8 2 Sur 7 Norte 0 911.6 -0.6 61
2017-07-25 05:00:00 17.2 4 Nordeste 11 Norte 0 911.7 -0.6 58
2017-07-25 04:00:00 17.6 5 Norte 11 Nordeste 0 912 -0.5 57
2017-07-25 03:00:00 18.9 3 Noroeste 11 Norte 0 912.2 0.1 54
2017-07-25 02:00:00 19.8 3 Sudeste 11 Norte 0 912.3 0.7 51
2017-07-25 01:00:00 20.6 4 Norte 17 Norte 0 912.5 1.3 49
2017-07-25 00:00:00 22.1 14 Nordeste 26 Nordeste 0 912.1 1.1 44
2017-07-24 23:00:00 24.5 6 Norte 15 Nordeste 0 911.6 0.8 27
2017-07-24 22:00:00 26.1 5 Norte 16 Norte 0 911.2 0.3 24
2017-07-24 21:00:00 27.9 5 Norte 21 Noroeste 0 911 0.2 23
2017-07-24 20:00:00 29.4 12 Noroeste 26 Noroeste 0 910.8 -0.1 20
2017-07-24 19:00:00 30.3 11 Noroeste 32 Oeste 0 910.9 -0.5 21
2017-07-24 18:00:00 30.9 13 Noroeste 28 Noroeste 0 910.8 -1.1 19
2017-07-24 17:00:00 31 14 Noroeste 32 Noroeste 0 910.9 -1.3 19
2017-07-24 16:00:00 30.4 17 Noroeste 34 Noroeste 0 911.4 -1 21
2017-07-24 15:00:00 29.8 13 Noroeste 31 Noroeste 0 911.9 -0.5 23
2017-07-24 14:00:00 29.6 9 Noroeste 31 Oeste 0 912.2 -0.3 26
2017-07-24 13:00:00 28.8 8 Noroeste 30 Noroeste 0 912.4 -0.3 27
2017-07-24 12:00:00 27.6 14 Oeste 24 Oeste 0 912.4 -0.2 32
2017-07-24 11:00:00 25.7 5 Noroeste 13 Oeste 0 912.5 0 38
2017-07-24 10:00:00 21.6 4 Noroeste 8 Noroeste 0 912.7 0.4 52
2017-07-24 09:00:00 19 2 Sudeste 6 Nordeste 0 912.6 0.5 62
2017-07-24 08:00:00 16.6 3 Oeste 5 Oeste 0 912.5 0.4 68
2017-07-24 07:00:00 17.2 0 Calma 7 Norte 0 912.3 0.1 65
2017-07-24 06:00:00 18 3 Nordeste 7 Norte 0 912.1 -0.3 65
2017-07-24 05:00:00 18.7 4 Norte 7 Norte 0 912.1 -0.5 62
2017-07-24 04:00:00 19.6 0 Calma 6 Noroeste 0 912.2 0 52
2017-07-24 03:00:00 20 3 Noroeste 10 Sudeste 0 912.4 0.4 38
2017-07-24 02:00:00 20.4 3 Sudeste 9 Norte 0 912.6 0.6 29
2017-07-24 01:00:00 22.2 0 Calma 8 Norte 0 912.2 0.7 25
2017-07-24 00:00:00 24 2 Oeste 5 Sudoeste 0 912 0.8 24
2017-07-23 23:00:00 26 2 Norte 10 Noroeste 0 912 1 20
2017-07-23 22:00:00 27.7 3 Norte 14 Noroeste 0 911.5 0.6 17
2017-07-23 21:00:00 29.5 10 Noroeste 30 Noroeste 0 911.2 0.3 16
2017-07-23 20:00:00 31 12 Noroeste 27 Noroeste 0 911 -0.2 13
2017-07-23 19:00:00 32.5 10 Oeste 29 Oeste 0 910.9 -0.5 13
2017-07-23 18:00:00 32.7 14 Oeste 28 Oeste 0 910.9 -1.1 12
2017-07-23 17:00:00 32.6 15 Oeste 30 Oeste 0 911.2 -1.2 15
2017-07-23 16:00:00 32.2 8 Oeste 25 Oeste 0 911.4 -1 21
2017-07-23 15:00:00 31.5 13 Sudoeste 30 Sudoeste 0 912 -0.3 24
2017-07-23 14:00:00 30.9 12 Sudoeste 30 Sudoeste 0 912.4 0.2 24
2017-07-23 13:00:00 30.2 12 Sudoeste 23 Sudoeste 0 912.4 0 30
2017-07-23 12:00:00 29.2 9 Sudeste 20 Sudeste 0 912.3 0.3 40
2017-07-23 11:00:00 26.5 7 Sur 12 Sur 0 912.2 0.4 49
2017-07-23 10:00:00 22.7 3 Noroeste 7 Noroeste 0 912.4 1 52
2017-07-23 09:00:00 19.9 2 Sudeste 5 Sudoeste 0 912 0.3 64
2017-07-23 08:00:00 17.3 2 Nordeste 6 Sudeste 0 911.8 0.2 68
2017-07-23 07:00:00 17.5 0 Calma 4 Norte 0 911.4 -0.3 59
2017-07-23 06:00:00 18.1 0 Calma 4 Norte 0 911.7 0 66
2017-07-23 05:00:00 18.8 0 Calma 4 Norte 0 911.6 -0.1 48
2017-07-23 04:00:00 19.4 2 Norte 5 Norte 0 911.7 0 48
2017-07-23 03:00:00 19.8 0 Calma 5 Norte 0 911.7 0.8 40
2017-07-23 02:00:00 20.2 2 Oeste 8 Norte 0 911.7 1.1 29
2017-07-23 01:00:00 21.1 5 Sudeste 12 Sudeste 0 911.7 1.7 29
2017-07-23 00:00:00 23.1 4 Sudeste 11 Norte 0 910.9 1.5 26